sensor_id;sensor_type;location;lat;lon;timestamp;P1;durP1;ratioP1;P2;durP2;ratioP2
74122;SDS011;62474;50.780;15.074;2022-09-25T06:19:41;13.17;;;6.20;;
74122;SDS011;62474;50.780;15.074;2022-09-25T06:22:07;12.20;;;6.45;;
74122;SDS011;62474;50.780;15.074;2022-09-25T06:24:33;11.05;;;6.00;;
74122;SDS011;62474;50.780;15.074;2022-09-25T06:26:59;11.55;;;6.15;;
74122;SDS011;62474;50.780;15.074;2022-09-25T06:29:25;10.23;;;5.93;;
74122;SDS011;62474;50.780;15.074;2022-09-25T06:31:51;13.07;;;5.83;;
74122;SDS011;62474;50.780;15.074;2022-09-25T06:34:17;11.45;;;6.10;;
74122;SDS011;62474;50.780;15.074;2022-09-25T06:36:43;11.20;;;6.28;;
74122;SDS011;62474;50.780;15.074;2022-09-25T06:39:09;10.95;;;6.03;;
74122;SDS011;62474;50.780;15.074;2022-09-25T06:41:35;10.57;;;6.28;;
74122;SDS011;62474;50.780;15.074;2022-09-25T06:44:01;10.03;;;5.50;;
74122;SDS011;62474;50.780;15.074;2022-09-25T06:46:27;10.80;;;5.45;;
74122;SDS011;62474;50.780;15.074;2022-09-25T06:48:54;11.00;;;5.60;;
74122;SDS011;62474;50.780;15.074;2022-09-25T06:51:23;10.50;;;5.60;;
74122;SDS011;62474;50.780;15.074;2022-09-25T06:53:52;10.25;;;5.45;;
74122;SDS011;62474;50.780;15.074;2022-09-25T06:56:19;10.07;;;5.73;;
74122;SDS011;62474;50.780;15.074;2022-09-25T06:58:46;11.18;;;5.80;;
74122;SDS011;62474;50.780;15.074;2022-09-25T07:01:12;10.82;;;6.03;;
74122;SDS011;62474;50.780;15.074;2022-09-25T07:03:39;10.77;;;6.13;;
74122;SDS011;62474;50.780;15.074;2022-09-25T07:06:19;10.40;;;6.03;;
74122;SDS011;62474;50.780;15.074;2022-09-25T07:08:45;9.87;;;5.70;;
74122;SDS011;62474;50.780;15.074;2022-09-25T07:11:22;10.80;;;6.05;;
74122;SDS011;62474;50.780;15.074;2022-09-25T07:13:48;11.48;;;6.53;;
74122;SDS011;62474;50.780;15.074;2022-09-25T07:16:17;12.45;;;6.93;;
74122;SDS011;62474;50.780;15.074;2022-09-25T07:18:43;11.35;;;6.93;;
74122;SDS011;62474;50.780;15.074;2022-09-25T07:21:11;12.43;;;7.80;;
74122;SDS011;62474;50.780;15.074;2022-09-25T07:23:37;12.45;;;7.35;;
74122;SDS011;62474;50.780;15.074;2022-09-25T07:26:11;13.75;;;7.63;;
74122;SDS011;62474;50.780;15.074;2022-09-25T07:28:37;13.65;;;8.30;;
74122;SDS011;62474;50.780;15.074;2022-09-25T07:31:11;13.13;;;7.47;;
74122;SDS011;62474;50.780;15.074;2022-09-25T07:33:37;13.23;;;7.07;;
74122;SDS011;62474;50.780;15.074;2022-09-25T07:36:03;12.25;;;7.20;;
74122;SDS011;62474;50.780;15.074;2022-09-25T07:38:29;10.65;;;6.80;;
74122;SDS011;62474;50.780;15.074;2022-09-25T07:40:55;10.80;;;6.32;;
74122;SDS011;62474;50.780;15.074;2022-09-25T07:43:22;10.88;;;6.18;;
74122;SDS011;62474;50.780;15.074;2022-09-25T07:45:48;10.10;;;5.93;;
74122;SDS011;62474;50.780;15.074;2022-09-25T07:48:17;10.43;;;5.47;;
74122;SDS011;62474;50.780;15.074;2022-09-25T07:50:45;11.43;;;5.07;;
74122;SDS011;62474;50.780;15.074;2022-09-25T07:53:14;10.55;;;4.93;;
74122;SDS011;62474;50.780;15.074;2022-09-25T07:55:40;10.40;;;5.70;;
74122;SDS011;62474;50.780;15.074;2022-09-25T15:16:33;9.50;;;4.30;;
74122;SDS011;62474;50.780;15.074;2022-09-25T15:19:20;8.10;;;4.40;;
74122;SDS011;62474;50.780;15.074;2022-09-25T15:21:47;8.10;;;4.53;;
74122;SDS011;62474;50.780;15.074;2022-09-25T15:24:22;7.60;;;4.60;;
74122;SDS011;62474;50.780;15.074;2022-09-25T15:27:02;8.38;;;4.65;;
74122;SDS011;62474;50.780;15.074;2022-09-25T15:29:33;8.25;;;4.75;;
74122;SDS011;62474;50.780;15.074;2022-09-25T15:31:59;8.15;;;4.72;;
74122;SDS011;62474;50.780;15.074;2022-09-25T15:34:26;8.65;;;4.90;;
74122;SDS011;62474;50.780;15.074;2022-09-25T15:39:52;7.90;;;4.28;;
74122;SDS011;62474;50.780;15.074;2022-09-25T15:42:18;8.77;;;3.83;;
74122;SDS011;62474;50.780;15.074;2022-09-25T15:44:45;9.85;;;4.40;;
74122;SDS011;62474;50.780;15.074;2022-09-25T15:47:53;7.10;;;4.40;;
74122;SDS011;62474;50.780;15.074;2022-09-25T15:50:00;11.30;;;8.37;;
74122;SDS011;62474;50.780;15.074;2022-09-25T15:52:28;8.85;;;6.18;;
74122;SDS011;62474;50.780;15.074;2022-09-25T15:55:01;10.13;;;5.13;;
74122;SDS011;62474;50.780;15.074;2022-09-25T15:57:29;6.90;;;3.88;;
74122;SDS011;62474;50.780;15.074;2022-09-25T15:59:55;6.68;;;3.80;;
74122;SDS011;62474;50.780;15.074;2022-09-25T16:02:46;6.63;;;3.20;;
74122;SDS011;62474;50.780;15.074;2022-09-25T16:05:32;6.05;;;3.20;;
74122;SDS011;62474;50.780;15.074;2022-09-25T16:10:44;6.78;;;3.33;;
74122;SDS011;62474;50.780;15.074;2022-09-25T16:13:17;6.43;;;3.50;;
74122;SDS011;62474;50.780;15.074;2022-09-25T16:15:45;6.37;;;3.30;;
74122;SDS011;62474;50.780;15.074;2022-09-25T16:20:46;8.82;;;4.78;;
74122;SDS011;62474;50.780;15.074;2022-09-25T16:23:26;7.57;;;4.22;;
74122;SDS011;62474;50.780;15.074;2022-09-25T16:25:53;9.57;;;5.72;;
74122;SDS011;62474;50.780;15.074;2022-09-25T16:28:21;7.37;;;3.97;;
74122;SDS011;62474;50.780;15.074;2022-09-25T16:30:57;9.55;;;5.55;;
74122;SDS011;62474;50.780;15.074;2022-09-25T16:33:28;7.90;;;4.70;;
74122;SDS011;62474;50.780;15.074;2022-09-25T16:35:55;7.90;;;4.38;;
74122;SDS011;62474;50.780;15.074;2022-09-25T16:38:28;21.25;;;12.30;;
74122;SDS011;62474;50.780;15.074;2022-09-25T16:41:02;20.97;;;11.73;;
74122;SDS011;62474;50.780;15.074;2022-09-25T16:43:29;13.23;;;7.03;;
74122;SDS011;62474;50.780;15.074;2022-09-25T16:45:59;11.18;;;6.22;;
74122;SDS011;62474;50.780;15.074;2022-09-25T16:48:27;10.50;;;6.47;;
74122;SDS011;62474;50.780;15.074;2022-09-25T16:50:53;12.65;;;7.63;;
74122;SDS011;62474;50.780;15.074;2022-09-25T16:53:20;18.47;;;12.13;;
74122;SDS011;62474;50.780;15.074;2022-09-25T16:55:47;26.75;;;15.20;;
74122;SDS011;62474;50.780;15.074;2022-09-25T16:58:18;24.85;;;14.35;;
74122;SDS011;62474;50.780;15.074;2022-09-25T17:00:44;35.70;;;20.73;;
74122;SDS011;62474;50.780;15.074;2022-09-25T17:03:11;40.88;;;21.80;;
74122;SDS011;62474;50.780;15.074;2022-09-25T17:05:37;31.30;;;18.40;;
74122;SDS011;62474;50.780;15.074;2022-09-25T17:08:13;23.25;;;12.75;;
74122;SDS011;62474;50.780;15.074;2022-09-25T17:10:40;23.80;;;13.88;;
74122;SDS011;62474;50.780;15.074;2022-09-25T17:13:06;26.33;;;15.48;;
74122;SDS011;62474;50.780;15.074;2022-09-25T17:15:33;22.08;;;12.15;;
74122;SDS011;62474;50.780;15.074;2022-09-25T17:18:00;27.47;;;15.50;;
74122;SDS011;62474;50.780;15.074;2022-09-25T17:20:27;19.45;;;10.30;;
74122;SDS011;62474;50.780;15.074;2022-09-25T17:22:55;21.33;;;11.95;;
74122;SDS011;62474;50.780;15.074;2022-09-25T17:28:07;11.68;;;7.28;;
74122;SDS011;62474;50.780;15.074;2022-09-25T17:30:33;17.93;;;12.10;;
74122;SDS011;62474;50.780;15.074;2022-09-25T17:32:59;17.35;;;9.70;;
74122;SDS011;62474;50.780;15.074;2022-09-25T17:35:34;14.48;;;9.57;;
74122;SDS011;62474;50.780;15.074;2022-09-25T17:38:02;16.35;;;10.50;;
74122;SDS011;62474;50.780;15.074;2022-09-25T17:40:29;14.68;;;10.07;;
74122;SDS011;62474;50.780;15.074;2022-09-25T17:42:57;12.47;;;7.17;;
74122;SDS011;62474;50.780;15.074;2022-09-25T17:48:09;9.02;;;4.90;;
74122;SDS011;62474;50.780;15.074;2022-09-25T17:50:36;7.93;;;4.78;;
74122;SDS011;62474;50.780;15.074;2022-09-25T17:53:04;9.00;;;5.28;;
74122;SDS011;62474;50.780;15.074;2022-09-25T17:55:32;10.60;;;5.80;;
74122;SDS011;62474;50.780;15.074;2022-09-25T17:57:59;10.90;;;5.78;;
74122;SDS011;62474;50.780;15.074;2022-09-25T18:00:25;9.25;;;5.57;;
74122;SDS011;62474;50.780;15.074;2022-09-25T18:02:51;11.98;;;6.13;;
74122;SDS011;62474;50.780;15.074;2022-09-25T18:05:17;13.68;;;6.43;;
74122;SDS011;62474;50.780;15.074;2022-09-25T18:07:43;9.00;;;4.83;;
74122;SDS011;62474;50.780;15.074;2022-09-25T18:10:09;18.45;;;11.27;;
